createdAt,value
2023-04-01T00:00:41.172Z,5.00
2023-04-01T00:03:45.047Z,5.83
2023-04-01T00:06:50.854Z,5.90
2023-04-01T00:09:53.954Z,8.20
2023-04-01T00:12:58.303Z,5.50
2023-04-01T00:16:03.406Z,5.50
2023-04-01T00:19:06.981Z,5.60
2023-04-01T00:22:12.475Z,5.67
2023-04-01T00:25:21.757Z,5.20
2023-04-01T00:28:26.312Z,8.37
2023-04-01T00:31:29.872Z,6.67
2023-04-01T00:34:32.913Z,7.77
2023-04-01T00:37:40.567Z,6.27
2023-04-01T00:40:46.567Z,7.77
2023-04-01T00:43:53.212Z,7.83
2023-04-01T00:46:58.856Z,7.67
2023-04-01T00:50:03.267Z,8.40
2023-04-01T00:53:09.060Z,10.67
2023-04-01T00:56:16.991Z,13.77
2023-04-01T00:59:26.095Z,10.47
2023-04-01T01:02:30.818Z,9.63
2023-04-01T01:05:50.115Z,10.17
2023-04-01T01:09:16.557Z,12.77
2023-04-01T01:12:22.726Z,8.97
2023-04-01T01:15:32.020Z,9.00
2023-04-01T01:18:41.318Z,6.37
2023-04-01T01:22:26.425Z,6.53
2023-04-01T01:25:42.672Z,6.53
2023-04-01T01:28:57.192Z,7.23
2023-04-01T01:32:10.463Z,7.13
2023-04-01T01:35:26.848Z,8.10
2023-04-01T01:38:35.434Z,9.30
2023-04-01T01:41:43.492Z,8.33
2023-04-01T01:44:49.455Z,9.20
2023-04-01T01:47:54.507Z,8.47
2023-04-01T01:50:59.646Z,6.57
2023-04-01T01:54:02.950Z,9.80
2023-04-01T01:57:11.267Z,8.40
2023-04-01T02:00:20.317Z,7.33
2023-04-01T02:03:30.696Z,8.83
2023-04-01T02:06:40.364Z,8.10
2023-04-01T02:09:46.122Z,6.40
2023-04-01T02:12:51.779Z,6.17
2023-04-01T02:16:02.614Z,9.83
2023-04-01T02:19:09.162Z,11.87
2023-04-01T02:22:18.242Z,10.50
2023-04-01T02:25:26.041Z,7.67
2023-04-01T02:28:30.405Z,9.23
2023-04-01T02:31:35.329Z,10.13
2023-04-01T02:34:39.648Z,10.73
2023-04-01T02:37:45.807Z,7.00
2023-04-01T02:40:52.150Z,11.93
2023-04-01T02:43:55.947Z,7.57
2023-04-01T02:46:59.050Z,6.30
2023-04-01T02:50:02.072Z,6.63
2023-04-01T02:53:07.297Z,9.93
2023-04-01T02:56:10.514Z,5.83
2023-04-01T02:59:13.747Z,7.27
2023-04-01T03:02:17.157Z,6.90
2023-04-01T03:05:20.516Z,5.57
2023-04-01T03:08:24.866Z,5.90
2023-04-01T03:11:28.416Z,6.63
2023-04-01T03:14:31.423Z,7.70
2023-04-01T03:17:34.551Z,7.73
2023-04-01T03:20:40.479Z,6.07
2023-04-01T03:23:45.156Z,11.10
2023-04-01T03:26:48.145Z,8.37
2023-04-01T03:29:51.592Z,7.30
2023-04-01T03:32:54.853Z,8.30
2023-04-01T03:35:58.375Z,7.23
2023-04-01T03:39:04.024Z,9.40
2023-04-01T03:42:15.746Z,8.57
2023-04-01T03:45:18.754Z,12.73
2023-04-01T03:48:24.009Z,9.10
2023-04-01T03:51:27.047Z,10.40
2023-04-01T03:54:31.511Z,9.67
2023-04-01T03:57:34.770Z,9.23
2023-04-01T04:00:48.292Z,11.10
2023-04-01T04:03:51.898Z,10.97
2023-04-01T04:06:55.385Z,9.63
2023-04-01T04:10:00.980Z,11.80
2023-04-01T04:13:03.966Z,9.47
2023-04-01T04:16:10.733Z,14.87
2023-04-01T04:19:17.930Z,9.63
2023-04-01T04:22:21.138Z,9.13
2023-04-01T04:25:25.865Z,8.73
2023-04-01T04:28:29.529Z,11.13
2023-04-01T04:31:36.509Z,9.57
2023-04-01T04:34:40.817Z,8.00
2023-04-01T04:37:44.339Z,7.30
2023-04-01T04:40:48.925Z,7.87
2023-04-01T04:43:54.948Z,12.17
2023-04-01T04:46:59.215Z,17.10
2023-04-01T04:50:03.023Z,9.67
2023-04-01T04:53:06.275Z,10.97
2023-04-01T04:56:11.529Z,8.93
2023-04-01T04:59:23.493Z,8.73
2023-04-01T05:02:44.851Z,9.93
2023-04-01T05:05:54.873Z,10.63
2023-04-01T05:08:58.600Z,8.97
2023-04-01T05:12:03.307Z,9.27
2023-04-01T05:15:20.296Z,9.57
2023-04-01T05:18:23.453Z,10.10
2023-04-01T05:21:26.544Z,10.07
2023-04-01T05:24:30.867Z,8.33
2023-04-01T05:27:35.434Z,11.83
2023-04-01T05:30:38.697Z,9.23
2023-04-01T05:33:57.989Z,10.23
2023-04-01T05:37:01.027Z,7.70
2023-04-01T05:40:06.576Z,10.87
2023-04-01T05:43:28.925Z,15.17
2023-04-01T05:46:33.632Z,10.40
2023-04-01T05:50:06.823Z,11.97
2023-04-01T05:53:09.843Z,9.67
2023-04-01T05:56:45.894Z,11.43
2023-04-01T05:59:52.573Z,7.27
2023-04-01T06:06:27.088Z,10.43
2023-04-01T06:09:34.128Z,9.60
2023-04-01T06:12:52.111Z,10.30
2023-04-01T06:16:10.088Z,12.73
2023-04-01T06:19:38.540Z,11.40
2023-04-01T06:23:06.736Z,11.83
2023-04-01T06:26:22.329Z,10.87
2023-04-01T06:29:55.375Z,13.23
2023-04-01T06:33:22.358Z,11.13
2023-04-01T06:36:48.260Z,15.30
2023-04-01T06:40:08.994Z,13.27
2023-04-01T06:43:25.400Z,14.10
2023-04-01T06:46:53.992Z,11.93
2023-04-01T06:51:09.996Z,7.93
2023-04-01T06:55:04.229Z,10.67
2023-04-01T06:58:39.495Z,9.43
2023-04-01T07:02:25.409Z,8.87
2023-04-01T07:05:33.986Z,10.30
2023-04-01T07:08:42.901Z,9.80
2023-04-01T07:11:47.806Z,11.70
2023-04-01T07:15:39.650Z,13.40
2023-04-01T07:18:48.327Z,8.60
2023-04-01T07:21:58.242Z,11.17
2023-04-01T07:25:17.260Z,12.43
2023-04-01T07:28:25.016Z,16.67
2023-04-01T07:32:05.624Z,14.57
2023-04-01T07:35:25.022Z,13.37
2023-04-01T07:38:42.295Z,15.40
2023-04-01T07:42:01.711Z,15.33
2023-04-01T07:45:19.104Z,15.67
2023-04-01T07:48:32.252Z,17.40
2023-04-01T07:52:10.398Z,11.63
2023-04-01T07:55:26.107Z,15.20
2023-04-01T07:58:41.021Z,14.83
2023-04-01T08:01:55.192Z,12.43
2023-04-01T08:05:10.007Z,15.83
2023-04-01T08:08:22.096Z,13.30
2023-04-01T08:12:06.538Z,17.67
2023-04-01T08:15:55.646Z,14.33
2023-04-01T08:19:32.727Z,13.10
2023-04-01T08:22:42.850Z,8.17
2023-04-01T08:26:00.290Z,10.77
2023-04-01T08:29:14.478Z,13.87
2023-04-01T08:32:23.578Z,13.90
2023-04-01T08:35:38.413Z,15.30
2023-04-01T08:38:48.679Z,17.30
2023-04-01T08:42:32.988Z,18.53
2023-04-01T08:45:59.094Z,18.77
2023-04-01T08:49:23.477Z,18.80
2023-04-01T08:52:37.461Z,20.90
2023-04-01T08:56:02.142Z,20.13
2023-04-01T08:59:34.395Z,20.53
2023-04-01T09:03:15.196Z,18.33
2023-04-01T09:06:31.930Z,16.70
2023-04-01T09:10:44.047Z,18.43
2023-04-01T09:14:49.117Z,20.20
2023-04-01T09:18:59.885Z,18.80
2023-04-01T09:22:48.823Z,15.77
2023-04-01T09:26:15.942Z,16.70
2023-04-01T09:29:40.994Z,19.57
2023-04-01T09:33:45.346Z,17.97
2023-04-01T09:37:04.722Z,20.10
2023-04-01T09:40:19.605Z,18.70
2023-04-01T09:43:30.573Z,21.63
2023-04-01T09:47:02.357Z,19.07
2023-04-01T09:50:38.892Z,18.23
2023-04-01T09:53:59.294Z,16.07
2023-04-01T09:57:36.302Z,15.87
2023-04-01T10:01:33.938Z,18.47
2023-04-01T10:05:36.525Z,17.07
2023-04-01T10:09:28.907Z,18.37
2023-04-01T10:13:15.047Z,18.83
2023-04-01T10:16:40.423Z,17.33
2023-04-01T10:20:11.237Z,18.53
2023-04-01T10:23:43.939Z,18.27
2023-04-01T10:27:08.714Z,18.27
2023-04-01T10:31:14.031Z,16.53
2023-04-01T10:35:16.470Z,16.97
2023-04-01T10:38:49.226Z,16.27
2023-04-01T10:42:24.913Z,15.17
2023-04-01T10:47:03.788Z,14.30
2023-04-01T10:50:29.429Z,13.17
2023-04-01T10:54:16.834Z,11.30
2023-04-01T10:58:20.774Z,11.30
2023-04-01T11:02:42.403Z,9.50
2023-04-01T11:06:45.782Z,9.57
2023-04-01T11:10:56.773Z,9.80
2023-04-01T11:15:03.984Z,10.43
2023-04-01T11:18:45.359Z,8.80
2023-04-01T11:22:21.949Z,7.83
2023-04-01T11:25:56.393Z,8.53
2023-04-01T11:30:00.920Z,8.63
2023-04-01T11:33:19.430Z,7.47
2023-04-01T11:36:40.432Z,7.47
2023-04-01T11:40:05.198Z,7.33
2023-04-01T11:44:03.239Z,7.23
2023-04-01T11:48:35.144Z,7.73
2023-04-01T11:51:59.652Z,8.33
2023-04-01T11:55:26.012Z,7.90
2023-04-01T11:59:00.024Z,7.93
2023-04-01T12:02:13.986Z,6.77
2023-04-01T12:05:33.440Z,8.23
2023-04-01T12:08:47.770Z,7.50
2023-04-01T12:12:05.303Z,9.47
2023-04-01T12:15:23.392Z,8.57
2023-04-01T12:18:37.120Z,9.07
2023-04-01T12:21:49.262Z,8.87
2023-04-01T12:25:01.713Z,9.03
2023-04-01T12:28:18.833Z,11.30
2023-04-01T12:31:37.828Z,10.30
2023-04-01T12:35:18.387Z,9.60
2023-04-01T12:38:34.361Z,10.53
2023-04-01T12:41:48.678Z,10.77
2023-04-01T12:45:06.679Z,11.70
2023-04-01T12:48:42.437Z,9.80
2023-04-01T12:52:08.488Z,9.37
2023-04-01T12:55:42.584Z,10.27
2023-04-01T12:59:18.750Z,9.97
2023-04-01T13:02:37.063Z,9.73
2023-04-01T13:06:25.488Z,10.83
2023-04-01T13:09:44.651Z,12.00
2023-04-01T13:13:34.346Z,13.70
2023-04-01T13:16:41.801Z,12.67
2023-04-01T13:20:05.724Z,12.33
2023-04-01T13:23:27.220Z,12.50
2023-04-01T13:26:38.303Z,13.27
2023-04-01T13:29:46.261Z,13.60
2023-04-01T13:32:58.294Z,12.47
2023-04-01T13:36:19.768Z,13.33
2023-04-01T13:39:41.370Z,12.27
2023-04-01T13:42:51.615Z,10.23
2023-04-01T13:46:22.634Z,12.97
2023-04-01T13:49:55.481Z,13.43
2023-04-01T13:53:35.508Z,10.83
2023-04-01T13:56:52.633Z,12.63
2023-04-01T14:00:24.648Z,10.93
2023-04-01T14:03:45.456Z,12.80
2023-04-01T14:07:06.957Z,11.83
2023-04-01T14:10:23.024Z,11.53
2023-04-01T14:13:40.783Z,12.87
2023-04-01T14:17:10.965Z,13.90
2023-04-01T14:20:41.606Z,15.17
2023-04-01T14:24:10.982Z,15.27
2023-04-01T14:27:40.321Z,13.23
2023-04-01T14:31:13.890Z,14.23
2023-04-01T14:34:40.655Z,13.40
2023-04-01T14:38:07.249Z,14.97
2023-04-01T14:41:23.141Z,12.40
2023-04-01T14:45:03.863Z,13.63
2023-04-01T14:48:24.014Z,10.20
2023-04-01T14:51:33.416Z,9.43
2023-04-01T14:54:40.109Z,10.80
2023-04-01T14:57:43.167Z,11.53
2023-04-01T15:00:56.252Z,13.07
2023-04-01T15:04:18.678Z,12.63
2023-04-01T15:07:56.009Z,11.10
2023-04-01T15:11:22.741Z,10.60
2023-04-01T15:14:48.909Z,8.67
2023-04-01T15:18:11.245Z,9.30
2023-04-01T15:21:27.764Z,11.33
2023-04-01T15:24:45.065Z,12.57
2023-04-01T15:27:57.165Z,14.00
2023-04-01T15:31:06.304Z,14.83
2023-04-01T15:34:34.620Z,15.50
2023-04-01T15:37:48.667Z,13.70
2023-04-01T15:41:00.540Z,13.40
2023-04-01T15:44:04.371Z,11.90
2023-04-01T15:47:29.862Z,11.90
2023-04-01T15:51:04.666Z,12.10
2023-04-01T15:54:26.999Z,10.77
2023-04-01T15:57:41.635Z,12.60
2023-04-01T16:00:52.116Z,10.77
2023-04-01T16:04:13.419Z,11.27
2023-04-01T16:07:32.074Z,10.87
2023-04-01T16:10:54.867Z,11.83
2023-04-01T16:14:12.184Z,13.97
2023-04-01T16:17:43.686Z,14.60
2023-04-01T16:20:53.991Z,15.80
2023-04-01T16:24:01.999Z,14.23
2023-04-01T16:27:13.587Z,13.83
2023-04-01T16:30:38.085Z,12.30
2023-04-01T16:33:50.958Z,13.33
2023-04-01T16:37:00.404Z,12.63
2023-04-01T16:40:25.240Z,15.40
2023-04-01T16:43:40.634Z,12.40
2023-04-01T16:46:46.325Z,13.50
2023-04-01T16:49:56.786Z,12.93
2023-04-01T16:53:04.719Z,12.73
2023-04-01T16:56:14.236Z,13.03
2023-04-01T16:59:24.209Z,11.33
2023-04-01T17:02:31.345Z,11.50
2023-04-01T17:05:47.117Z,11.57
2023-04-01T17:09:10.145Z,11.73
2023-04-01T17:12:22.079Z,13.17
2023-04-01T17:15:38.725Z,12.97
2023-04-01T17:18:53.865Z,12.33
2023-04-01T17:22:06.478Z,13.10
2023-04-01T17:25:31.663Z,13.23
2023-04-01T17:28:59.102Z,12.93
2023-04-01T17:32:12.694Z,13.33
2023-04-01T17:35:30.620Z,13.00
2023-04-01T17:39:07.925Z,13.30
2023-04-01T17:42:17.126Z,12.67
2023-04-01T17:45:37.578Z,14.70
2023-04-01T17:48:54.054Z,14.70
2023-04-01T17:52:03.567Z,12.73
2023-04-01T17:55:36.302Z,13.37
2023-04-01T17:58:48.250Z,13.07
2023-04-01T18:02:03.379Z,13.23
2023-04-01T18:05:43.352Z,14.00
2023-04-01T18:09:00.022Z,14.87
2023-04-01T18:12:15.477Z,15.27
2023-04-01T18:15:30.434Z,15.00
2023-04-01T18:18:48.342Z,12.67
2023-04-01T18:21:57.301Z,13.17
2023-04-01T18:25:12.921Z,14.57
2023-04-01T18:28:25.964Z,13.17
2023-04-01T18:31:37.537Z,14.87
2023-04-01T18:34:54.860Z,13.47
2023-04-01T18:38:06.937Z,12.57
2023-04-01T18:41:16.512Z,14.27
2023-04-01T18:44:32.343Z,11.80
2023-04-01T18:47:46.618Z,12.33
2023-04-01T18:50:55.408Z,11.13
2023-04-01T18:54:04.893Z,11.23
2023-04-01T18:57:16.276Z,13.93
2023-04-01T19:00:24.467Z,10.73
2023-04-01T19:03:37.023Z,11.03
2023-04-01T19:06:55.705Z,13.23
2023-04-01T19:10:36.645Z,10.90
2023-04-01T19:14:00.531Z,12.60
2023-04-01T19:17:30.191Z,15.13
2023-04-01T19:20:48.267Z,16.70
2023-04-01T19:24:28.522Z,12.77
2023-04-01T19:27:39.691Z,18.07
2023-04-01T19:30:55.931Z,15.07
2023-04-01T19:34:16.856Z,14.73
2023-04-01T19:37:33.245Z,13.60
2023-04-01T19:41:21.181Z,13.47
2023-04-01T19:44:47.526Z,14.70
2023-04-01T19:48:04.262Z,14.00
2023-04-01T19:51:24.881Z,12.63
2023-04-01T19:54:43.217Z,16.90
2023-04-01T19:58:00.222Z,14.33
2023-04-01T20:01:08.657Z,15.40
2023-04-01T20:04:17.140Z,14.53
2023-04-01T20:07:29.298Z,12.57
2023-04-01T20:10:40.101Z,21.63
2023-04-01T20:13:56.105Z,12.37
2023-04-01T20:17:13.461Z,13.73
2023-04-01T20:20:22.801Z,18.53
2023-04-01T20:23:42.216Z,12.07
2023-04-01T20:26:52.260Z,17.60
2023-04-01T20:30:18.954Z,16.60
2023-04-01T20:33:53.364Z,17.73
2023-04-01T20:37:12.200Z,18.10
2023-04-01T20:40:37.155Z,15.97
2023-04-01T20:44:12.046Z,17.23
2023-04-01T20:47:29.501Z,13.37
2023-04-01T20:50:43.905Z,16.20
2023-04-01T20:53:53.471Z,13.33
2023-04-01T20:57:07.180Z,16.57
2023-04-01T21:00:30.047Z,15.23
2023-04-01T21:03:47.429Z,14.57
2023-04-01T21:07:06.331Z,17.03
2023-04-01T21:10:36.991Z,14.53
2023-04-01T21:14:04.222Z,16.67
2023-04-01T21:17:20.160Z,11.93
2023-04-01T21:20:48.226Z,14.27
2023-04-01T21:24:25.818Z,12.87
2023-04-01T21:27:44.590Z,12.57
2023-04-01T21:31:08.066Z,13.57
2023-04-01T21:34:46.173Z,14.53
2023-04-01T21:38:09.116Z,15.90
2023-04-01T21:41:40.157Z,15.63
2023-04-01T21:45:05.592Z,12.50
2023-04-01T21:48:44.812Z,13.20
2023-04-01T21:52:29.068Z,13.43
2023-04-01T21:56:07.694Z,15.23
2023-04-01T21:59:41.678Z,11.87
2023-04-01T22:03:27.851Z,10.37
2023-04-01T22:06:36.939Z,10.10
2023-04-01T22:09:45.448Z,11.17
2023-04-01T22:12:56.778Z,15.60
2023-04-01T22:16:11.708Z,10.63
2023-04-01T22:19:22.963Z,10.63
2023-04-01T22:22:36.851Z,14.30
2023-04-01T22:25:46.964Z,9.17
2023-04-01T22:28:57.321Z,10.70
2023-04-01T22:32:08.284Z,9.30
2023-04-01T22:35:26.376Z,10.13
2023-04-01T22:38:48.298Z,8.03
2023-04-01T22:42:03.883Z,9.80
2023-04-01T22:45:26.915Z,9.10
2023-04-01T22:48:39.336Z,11.70
2023-04-01T22:51:47.220Z,11.63
2023-04-01T22:54:55.161Z,9.53
2023-04-01T22:58:05.154Z,8.67
2023-04-01T23:01:14.596Z,7.97
2023-04-01T23:04:27.127Z,8.77
2023-04-01T23:07:47.401Z,8.50
2023-04-01T23:10:55.277Z,7.73
2023-04-01T23:14:26.865Z,10.03
2023-04-01T23:17:53.613Z,11.40
2023-04-01T23:21:17.850Z,7.43
2023-04-01T23:24:28.929Z,10.13
2023-04-01T23:27:38.054Z,8.57
2023-04-01T23:30:53.065Z,9.47
2023-04-01T23:33:57.664Z,8.10
2023-04-01T23:37:08.709Z,8.47
2023-04-01T23:40:15.530Z,7.80
2023-04-01T23:43:27.676Z,8.10
2023-04-01T23:46:35.936Z,7.70
2023-04-01T23:49:43.982Z,7.73
2023-04-01T23:52:53.689Z,8.83
2023-04-01T23:55:58.227Z,8.33
2023-04-01T23:59:01.264Z,8.10
